Terminal Aerodrome Forecast
Issued by NWS

Home | Current Version | Previous Version | Graphics & Text | Print | Product List | Glossary On
Versions: 1 2 3 4 5 6 7 8 9 10 11 12 13 14 15 16 17 18 19 20 21 22 23 24 25 26 27 28
000
FTUS43 KGRB 232300
TAFCWA
TAF
KCWA 232336Z 2400/2424 14004KT 1/4SM -RA FG VV003
      TEMPO 2400/2401 3/4SM -RA BR OVC002
     FM240100 VRB03KT 3/4SM -RA BR OVC002
     FM240700 32008KT 1/2SM -RA FG OVC002
     FM241200 31010KT 1SM -RASN BR OVC005
     FM241500 31012G20KT 1 1/2SM -SN OVC007
     FM242000 31012G20KT 4SM -SN OVC012
      AMD LTD TO CLD VIS AND WIND 2403/2411=

USA.gov is the U.S. government's official web portal to all federal, state and local government web resources and services.